createdAt,value
2022-12-15T00:05:58.504Z,101455.25
2022-12-15T00:08:44.080Z,101463.47
2022-12-15T00:11:29.913Z,101450.16
2022-12-15T00:14:15.714Z,101458.63
2022-12-15T00:17:01.291Z,101459.91
2022-12-15T00:19:47.077Z,101459.47
2022-12-15T00:22:32.679Z,101452.91
2022-12-15T00:25:18.768Z,101452.69
2022-12-15T00:28:04.470Z,101432.03
2022-12-15T00:30:50.569Z,101432.69
2022-12-15T00:33:36.184Z,101436.06
2022-12-15T00:36:21.689Z,101441.34
2022-12-15T00:38:49.211Z,101461.91
2022-12-15T00:41:18.545Z,101462.22
2022-12-15T00:43:45.840Z,101450.44
2022-12-15T00:46:32.329Z,101446.88
2022-12-15T00:49:00.471Z,101434.00
2022-12-15T00:51:46.302Z,101434.19
2022-12-15T00:54:32.507Z,101437.00
2022-12-15T00:57:18.006Z,101435.94
2022-12-15T01:00:03.451Z,101444.09
2022-12-15T01:02:49.323Z,101442.66
2022-12-15T01:05:35.530Z,101439.13
2022-12-15T01:08:21.259Z,101446.94
2022-12-15T01:11:07.036Z,101439.53
2022-12-15T01:13:52.494Z,101440.19
2022-12-15T01:16:38.684Z,101447.59
2022-12-15T01:19:27.501Z,101438.50
2022-12-15T01:21:54.880Z,101442.72
2022-12-15T01:24:22.009Z,101436.19
2022-12-15T01:26:49.478Z,101431.38
2022-12-15T01:29:16.633Z,101424.84
2022-12-15T01:31:44.289Z,101422.94
2022-12-15T01:34:12.466Z,101421.69
2022-12-15T01:36:39.609Z,101432.66
2022-12-15T01:39:06.678Z,101423.78
2022-12-15T01:41:33.947Z,101437.31
2022-12-15T01:44:24.178Z,101441.94
2022-12-15T01:46:56.555Z,101442.81
2022-12-15T01:49:32.041Z,101449.56
2022-12-15T01:52:01.976Z,101436.25
2022-12-15T01:54:31.889Z,101440.69
2022-12-15T01:57:14.914Z,101447.47
2022-12-15T01:59:48.889Z,101441.97
2022-12-15T02:02:17.930Z,101450.22
2022-12-15T02:04:46.361Z,101451.25
2022-12-15T02:07:15.401Z,101441.53
2022-12-15T02:09:45.446Z,101437.75
2022-12-15T02:12:40.955Z,101459.88
2022-12-15T02:15:30.095Z,101455.00
2022-12-15T02:18:19.120Z,101457.88
2022-12-15T02:21:04.794Z,101449.00
2022-12-15T02:24:16.500Z,101447.41
2022-12-15T02:27:09.400Z,101417.78
2022-12-15T02:30:03.784Z,101414.41
2022-12-15T02:32:41.882Z,101408.91
2022-12-15T02:35:17.632Z,101401.50
2022-12-15T02:37:45.672Z,101404.25
2022-12-15T02:40:17.669Z,101395.72
2022-12-15T02:42:52.454Z,101390.38
2022-12-15T02:45:31.907Z,101384.59
2022-12-15T02:48:16.374Z,101400.78
2022-12-15T02:51:01.216Z,101410.41
2022-12-15T02:54:07.179Z,101413.44
2022-12-15T02:56:58.686Z,101412.75
2022-12-15T02:59:55.708Z,101406.34
2022-12-15T03:02:29.458Z,101399.78
2022-12-15T03:04:59.084Z,101409.41
2022-12-15T03:07:28.151Z,101413.47
2022-12-15T03:10:02.799Z,101409.28
2022-12-15T03:12:30.238Z,101397.78
2022-12-15T03:14:58.132Z,101392.34
2022-12-15T03:17:25.185Z,101403.09
2022-12-15T03:19:52.567Z,101410.59
2022-12-15T03:22:19.782Z,101413.72
2022-12-15T03:24:46.916Z,101399.50
2022-12-15T03:27:14.322Z,101399.22
2022-12-15T03:29:41.543Z,101403.72
2022-12-15T03:32:08.745Z,101397.34
2022-12-15T03:34:36.217Z,101391.63
2022-12-15T03:37:03.270Z,101372.41
2022-12-15T03:39:30.530Z,101377.69
2022-12-15T03:41:57.627Z,101369.97
2022-12-15T03:44:24.843Z,101388.25
2022-12-15T03:46:52.131Z,101378.38
2022-12-15T03:49:19.506Z,101369.25
2022-12-15T03:51:46.663Z,101374.31
2022-12-15T03:54:14.326Z,101390.59
2022-12-15T03:56:41.595Z,101375.97
2022-12-15T03:59:08.789Z,101383.47
2022-12-15T04:01:37.379Z,101397.13
2022-12-15T04:04:05.475Z,101384.88
2022-12-15T04:06:32.748Z,101388.28
2022-12-15T04:09:01.161Z,101387.19
2022-12-15T04:11:28.340Z,101388.75
2022-12-15T04:13:56.965Z,101403.97
2022-12-15T04:16:24.138Z,101397.69
2022-12-15T04:19:11.444Z,101400.38
2022-12-15T04:21:38.658Z,101380.22
2022-12-15T04:24:24.611Z,101379.03
2022-12-15T04:27:10.491Z,101394.00
2022-12-15T04:29:56.008Z,101390.63
2022-12-15T04:32:42.241Z,101403.00
2022-12-15T04:35:29.236Z,101397.44
2022-12-15T04:38:15.367Z,101403.31
2022-12-15T04:41:01.126Z,101399.47
2022-12-15T04:43:46.924Z,101397.88
2022-12-15T04:46:32.540Z,101421.06
2022-12-15T04:49:18.461Z,101411.53
2022-12-15T04:52:03.956Z,101408.16
2022-12-15T04:54:49.616Z,101405.47
2022-12-15T04:57:35.399Z,101423.22
2022-12-15T05:00:21.504Z,101421.66
2022-12-15T05:03:07.634Z,101401.81
2022-12-15T05:05:53.246Z,101418.03
2022-12-15T05:08:38.995Z,101416.59
2022-12-15T05:11:25.221Z,101417.78
2022-12-15T05:14:10.981Z,101415.88
2022-12-15T05:16:56.670Z,101408.66
2022-12-15T05:19:42.297Z,101416.72
2022-12-15T05:22:27.912Z,101408.81
2022-12-15T05:25:13.576Z,101407.97
2022-12-15T05:27:59.745Z,101399.53
2022-12-15T05:30:45.198Z,101407.53
2022-12-15T05:33:12.589Z,101407.94
2022-12-15T05:35:39.852Z,101404.19
2022-12-15T05:38:07.008Z,101411.88
2022-12-15T05:40:34.184Z,101409.22
2022-12-15T05:43:01.507Z,101416.91
2022-12-15T05:45:28.820Z,101424.88
2022-12-15T05:47:56.280Z,101429.69
2022-12-15T05:50:23.878Z,101425.13
2022-12-15T05:52:51.459Z,101436.53
2022-12-15T05:55:19.377Z,101429.28
2022-12-15T05:57:54.369Z,101434.94
2022-12-15T06:00:22.201Z,101434.41
2022-12-15T06:02:50.172Z,101428.31
2022-12-15T06:05:18.119Z,101433.56
2022-12-15T06:07:45.454Z,101439.19
2022-12-15T06:10:12.603Z,101441.81
2022-12-15T06:12:40.069Z,101406.13
2022-12-15T06:15:07.728Z,101448.03
2022-12-15T06:17:34.773Z,101435.28
2022-12-15T06:20:02.358Z,101434.44
2022-12-15T06:22:30.829Z,101447.34
2022-12-15T06:24:57.987Z,101434.09
2022-12-15T06:27:25.130Z,101405.41
2022-12-15T06:29:52.329Z,101421.31
2022-12-15T06:32:21.409Z,101435.03
2022-12-15T06:34:49.575Z,101450.91
2022-12-15T06:37:16.899Z,101439.78
2022-12-15T06:39:44.073Z,101439.72
2022-12-15T06:42:11.501Z,101448.66
2022-12-15T06:44:39.227Z,101401.97
2022-12-15T06:47:07.708Z,101418.19
2022-12-15T06:49:34.789Z,101423.97
2022-12-15T06:52:01.939Z,101428.13
2022-12-15T06:54:29.043Z,101435.19
2022-12-15T06:56:56.279Z,101433.19
2022-12-15T06:59:23.699Z,101413.53
2022-12-15T07:01:50.848Z,101417.63
2022-12-15T07:04:18.642Z,101413.97
2022-12-15T07:06:45.840Z,101407.44
2022-12-15T07:09:16.924Z,101411.00
2022-12-15T07:11:45.378Z,101426.50
2022-12-15T07:14:12.522Z,101408.38
2022-12-15T07:16:39.699Z,101402.22
2022-12-15T07:19:06.823Z,101414.22
2022-12-15T07:21:34.228Z,101414.28
2022-12-15T07:24:02.144Z,101426.44
2022-12-15T07:26:30.569Z,101415.16
2022-12-15T07:28:57.807Z,101399.78
2022-12-15T07:31:25.355Z,101408.56
2022-12-15T07:33:53.948Z,101407.22
2022-12-15T07:36:21.126Z,101419.88
2022-12-15T07:38:50.229Z,101399.56
2022-12-15T07:41:20.545Z,101421.09
2022-12-15T07:43:48.312Z,101387.91
2022-12-15T07:46:16.578Z,101390.38
2022-12-15T07:48:44.059Z,101398.09
2022-12-15T07:51:20.291Z,101381.09
2022-12-15T07:53:49.907Z,101394.72
2022-12-15T07:56:17.881Z,101377.41
2022-12-15T07:58:45.193Z,101382.38
2022-12-15T08:01:14.559Z,101373.72
2022-12-15T08:03:42.096Z,101364.16
2022-12-15T08:06:12.172Z,101372.34
2022-12-15T08:08:40.767Z,101364.50
2022-12-15T08:11:09.981Z,101362.91
2022-12-15T08:14:02.185Z,101368.31
2022-12-15T08:16:26.583Z,101363.09
2022-12-15T08:18:54.148Z,101348.38
2022-12-15T08:21:21.439Z,101349.13
2022-12-15T08:23:48.613Z,101315.34
2022-12-15T08:26:18.165Z,101325.22
2022-12-15T08:28:46.071Z,101321.63
2022-12-15T08:31:18.952Z,101326.78
2022-12-15T08:33:46.993Z,101300.72
2022-12-15T08:36:17.376Z,101299.28
2022-12-15T08:38:46.425Z,101301.56
2022-12-15T08:41:23.392Z,101291.09
2022-12-15T08:43:51.937Z,101296.03
2022-12-15T08:46:21.258Z,101281.16
2022-12-15T08:48:49.639Z,101259.03
2022-12-15T08:51:17.654Z,101271.06
2022-12-15T08:53:45.654Z,101259.13
2022-12-15T08:56:16.535Z,101265.50
2022-12-15T08:58:45.157Z,101272.63
2022-12-15T09:01:18.997Z,101280.19
2022-12-15T09:03:47.890Z,101247.66
2022-12-15T09:06:18.230Z,101273.13
2022-12-15T09:08:48.581Z,101256.16
2022-12-15T09:11:18.258Z,101240.34
2022-12-15T09:13:45.475Z,101251.84
2022-12-15T09:16:15.372Z,101246.66
2022-12-15T09:18:44.664Z,101247.72
2022-12-15T09:21:13.376Z,101238.78
2022-12-15T09:23:41.462Z,101248.69
2022-12-15T09:26:14.537Z,101247.91
2022-12-15T09:28:43.604Z,101226.06
2022-12-15T09:31:13.865Z,101234.97
2022-12-15T09:33:42.358Z,101208.41
2022-12-15T09:36:11.081Z,101227.91
2022-12-15T09:38:38.665Z,101221.34
2022-12-15T09:41:17.598Z,101223.28
2022-12-15T09:44:16.100Z,101201.09
2022-12-15T09:46:58.304Z,101203.94
2022-12-15T09:49:56.548Z,101190.41
2022-12-15T09:52:47.600Z,101197.63
2022-12-15T09:55:25.185Z,101195.47
2022-12-15T09:58:10.900Z,101188.97
2022-12-15T10:00:50.683Z,101184.56
2022-12-15T10:04:05.599Z,101185.06
2022-12-15T10:06:45.240Z,101162.06
2022-12-15T10:09:29.094Z,101178.13
2022-12-15T10:12:15.633Z,101185.47
2022-12-15T10:14:55.106Z,101182.31
2022-12-15T10:17:26.557Z,101187.88
2022-12-15T10:20:06.845Z,101190.84
2022-12-15T10:22:39.370Z,101191.56
2022-12-15T10:25:32.284Z,101203.44
2022-12-15T10:28:17.841Z,101204.47
2022-12-15T10:30:57.035Z,101205.38
2022-12-15T10:33:26.600Z,101189.28
2022-12-15T10:35:55.099Z,101178.94
2022-12-15T10:38:31.208Z,101182.97
2022-12-15T10:41:05.118Z,101158.13
2022-12-15T10:43:44.259Z,101170.53
2022-12-15T10:46:22.219Z,101177.13
2022-12-15T10:48:57.621Z,101156.53
2022-12-15T10:51:29.259Z,101163.19
2022-12-15T10:54:04.774Z,101152.88
2022-12-15T10:56:34.252Z,101149.41
2022-12-15T10:59:41.871Z,101146.25
2022-12-15T11:02:24.684Z,101153.81
2022-12-15T11:05:16.288Z,101145.41
2022-12-15T11:07:52.472Z,101152.97
2022-12-15T11:10:24.548Z,101135.63
2022-12-15T11:13:16.360Z,101127.69
2022-12-15T11:15:51.899Z,101111.88
2022-12-15T11:18:32.270Z,101113.00
2022-12-15T11:21:07.834Z,101121.78
2022-12-15T11:24:05.857Z,101114.22
2022-12-15T11:27:05.251Z,101113.19
2022-12-15T11:30:10.641Z,101095.03
2022-12-15T11:32:42.010Z,101086.97
2022-12-15T11:35:15.424Z,101081.50
2022-12-15T11:37:45.539Z,101088.59
2022-12-15T11:40:43.997Z,101088.91
2022-12-15T11:43:53.895Z,101094.72
2022-12-15T11:46:24.614Z,101092.47
2022-12-15T11:49:13.196Z,101084.25
2022-12-15T11:51:50.798Z,101074.56
2022-12-15T11:54:40.088Z,101086.78
2022-12-15T11:57:16.617Z,101084.00
2022-12-15T11:59:49.953Z,101073.00
2022-12-15T12:02:28.169Z,101074.31
2022-12-15T12:04:58.463Z,101062.19
2022-12-15T12:10:51.696Z,101060.66
2022-12-15T12:13:21.875Z,101075.25
2022-12-15T12:16:22.016Z,101067.38
2022-12-15T12:18:59.950Z,101050.16
2022-12-15T12:21:43.198Z,101062.50
2022-12-15T12:24:23.940Z,101040.50
2022-12-15T12:27:02.176Z,101045.84
2022-12-15T12:29:34.650Z,101052.75
2022-12-15T12:32:28.223Z,101055.63
2022-12-15T12:35:31.054Z,101065.56
2022-12-15T12:38:04.267Z,101061.81
2022-12-15T12:40:41.068Z,101048.94
2022-12-15T12:43:14.093Z,101062.13
2022-12-15T12:45:47.460Z,101060.00
2022-12-15T12:48:34.185Z,101054.16
2022-12-15T12:51:25.266Z,101057.94
2022-12-15T12:53:53.539Z,101056.56
2022-12-15T12:56:48.699Z,101057.84
2022-12-15T12:59:30.369Z,101065.16
2022-12-15T13:02:24.769Z,101061.94
2022-12-15T13:05:00.106Z,101059.50
2022-12-15T13:07:34.891Z,101051.66
2022-12-15T13:10:08.100Z,101060.53
2022-12-15T13:12:59.591Z,101073.03
2022-12-15T13:15:42.662Z,101066.34
2022-12-15T13:18:17.757Z,101059.06
2022-12-15T13:20:50.455Z,101057.91
2022-12-15T13:23:24.908Z,101051.41
2022-12-15T13:25:59.016Z,101047.63
2022-12-15T13:28:43.031Z,101048.13
2022-12-15T13:31:17.151Z,101070.25
2022-12-15T13:34:14.109Z,101063.13
2022-12-15T13:36:41.197Z,101043.81
2022-12-15T13:39:17.636Z,101034.97
2022-12-15T13:44:57.538Z,101047.66
2022-12-15T13:47:30.911Z,101050.56
2022-12-15T13:50:02.775Z,101043.06
2022-12-15T13:55:53.658Z,101052.06
2022-12-15T13:58:22.502Z,101040.47
2022-12-15T14:00:53.642Z,101028.19
2022-12-15T14:03:21.029Z,101054.38
2022-12-15T14:05:54.087Z,101040.81
2022-12-15T14:08:26.519Z,101045.00
2022-12-15T14:10:59.296Z,101045.53
2022-12-15T14:13:38.564Z,101041.34
2022-12-15T14:16:19.746Z,101037.38
2022-12-15T14:19:04.234Z,101030.69
2022-12-15T14:21:31.548Z,101029.91
2022-12-15T14:24:37.470Z,101032.22
2022-12-15T14:26:48.997Z,101039.38
2022-12-15T14:29:18.134Z,101031.63
2022-12-15T14:31:50.624Z,101038.34
2022-12-15T14:34:32.408Z,101032.78
2022-12-15T14:37:04.129Z,101028.22
2022-12-15T14:39:40.656Z,101016.81
2022-12-15T14:42:12.728Z,101033.28
2022-12-15T14:44:49.712Z,101035.25
2022-12-15T14:47:27.193Z,101031.91
2022-12-15T14:49:57.000Z,101040.03
2022-12-15T14:52:39.023Z,101055.28
2022-12-15T14:55:21.583Z,101028.97
2022-12-15T14:57:52.061Z,101033.91
2022-12-15T15:00:28.011Z,101049.78
2022-12-15T15:03:12.254Z,101063.16
2022-12-15T15:03:18.502Z,101041.00
2022-12-15T15:05:52.458Z,101032.84
2022-12-15T15:08:32.033Z,101042.28
2022-12-15T15:11:03.805Z,101057.47
2022-12-15T15:13:40.124Z,101046.59
2022-12-15T15:16:15.332Z,101048.16
2022-12-15T15:18:43.990Z,101052.06
2022-12-15T15:21:21.046Z,101037.69
2022-12-15T15:24:03.176Z,101055.25
2022-12-15T15:26:31.190Z,101055.19
2022-12-15T15:28:59.023Z,101050.81
2022-12-15T15:31:27.455Z,101048.41
2022-12-15T15:34:00.017Z,101046.81
2022-12-15T15:36:36.534Z,101041.06
2022-12-15T15:39:12.403Z,101033.50
2022-12-15T15:41:39.616Z,101024.38
2022-12-15T15:44:13.198Z,101015.56
2022-12-15T15:46:46.721Z,101024.78
2022-12-15T15:49:18.448Z,101019.19
2022-12-15T15:51:45.885Z,101020.22
2022-12-15T15:54:20.631Z,101029.59
2022-12-15T15:56:47.745Z,100990.22
2022-12-15T15:59:17.400Z,101022.28
2022-12-15T16:01:47.621Z,101015.94
2022-12-15T16:04:14.908Z,101012.44
2022-12-15T16:06:46.933Z,101018.56
2022-12-15T16:09:15.956Z,101019.38
2022-12-15T16:11:46.620Z,100991.47
2022-12-15T16:14:16.276Z,101023.56
2022-12-15T16:16:44.732Z,101009.28
2022-12-15T16:19:15.196Z,101009.34
2022-12-15T16:21:43.372Z,101009.97
2022-12-15T16:24:16.563Z,100986.22
2022-12-15T16:26:51.214Z,101006.25
2022-12-15T16:29:20.849Z,101001.22
2022-12-15T16:31:48.185Z,100981.84
2022-12-15T16:34:24.846Z,101000.19
2022-12-15T16:36:52.221Z,100975.47
2022-12-15T16:39:26.327Z,100982.44
2022-12-15T16:41:55.726Z,100968.28
2022-12-15T16:44:24.124Z,100956.16
2022-12-15T16:47:06.855Z,100950.03
2022-12-15T16:49:39.841Z,100958.47
2022-12-15T16:52:18.859Z,100951.63
2022-12-15T16:54:49.165Z,100951.38
2022-12-15T16:57:16.871Z,100960.94
2022-12-15T16:59:44.110Z,100952.22
2022-12-15T17:02:27.819Z,100956.03
2022-12-15T17:04:55.874Z,100935.16
2022-12-15T17:07:26.533Z,100936.59
2022-12-15T17:09:54.212Z,100928.03
2022-12-15T17:12:21.318Z,100927.28
2022-12-15T17:14:48.774Z,100923.78
2022-12-15T17:17:18.659Z,100927.22
2022-12-15T17:22:34.481Z,100907.06
2022-12-15T17:25:01.981Z,100903.13
2022-12-15T17:27:30.883Z,100915.22
2022-12-15T17:30:00.769Z,100916.13
2022-12-15T17:32:28.267Z,100899.97
2022-12-15T17:34:55.479Z,100912.59
2022-12-15T17:37:22.813Z,100926.44
2022-12-15T17:39:51.587Z,100907.56
2022-12-15T17:42:20.419Z,100901.63
2022-12-15T17:44:49.208Z,100904.31
2022-12-15T17:47:19.095Z,100896.25
2022-12-15T17:49:47.876Z,100871.13
2022-12-15T17:52:34.646Z,100906.44
2022-12-15T17:55:04.411Z,100894.22
2022-12-15T17:57:32.808Z,100892.53
2022-12-15T18:00:02.364Z,100910.81
2022-12-15T18:02:33.791Z,100913.91
2022-12-15T18:05:01.316Z,100912.25
2022-12-15T18:07:28.548Z,100897.53
2022-12-15T18:09:55.746Z,100902.06
2022-12-15T18:12:25.690Z,100901.28
2022-12-15T18:14:54.368Z,100896.03
2022-12-15T18:17:21.800Z,100873.19
2022-12-15T18:19:49.415Z,100857.56
2022-12-15T18:22:23.445Z,100870.69
2022-12-15T18:24:53.136Z,100878.53
2022-12-15T18:27:26.616Z,100884.38
2022-12-15T18:29:54.326Z,100884.56
2022-12-15T18:32:25.687Z,100872.03
2022-12-15T18:34:54.076Z,100858.41
2022-12-15T18:37:23.275Z,100862.53
2022-12-15T18:39:51.019Z,100866.44
2022-12-15T18:42:21.512Z,100867.47
2022-12-15T18:44:52.040Z,100867.09
2022-12-15T18:47:24.117Z,100849.94
2022-12-15T18:49:51.360Z,100853.22
2022-12-15T18:52:26.607Z,100836.50
2022-12-15T18:54:57.409Z,100842.53
2022-12-15T18:57:32.309Z,100849.47
2022-12-15T19:00:05.755Z,100841.34
2022-12-15T19:02:34.591Z,100806.47
2022-12-15T19:05:01.990Z,100849.72
2022-12-15T19:07:30.345Z,100838.69
2022-12-15T19:09:57.755Z,100825.94
2022-12-15T19:12:25.016Z,100818.94
2022-12-15T19:14:52.986Z,100824.47
2022-12-15T19:17:42.834Z,100831.00
2022-12-15T19:20:37.692Z,100829.38
2022-12-15T19:23:07.025Z,100828.16
2022-12-15T19:25:35.412Z,100832.63
2022-12-15T19:28:02.573Z,100803.19
2022-12-15T19:30:38.547Z,100829.75
2022-12-15T19:33:10.455Z,100814.38
2022-12-15T19:35:39.172Z,100832.13
2022-12-15T19:38:07.480Z,100822.81
2022-12-15T19:40:36.602Z,100816.19
2022-12-15T19:43:04.494Z,100848.31
2022-12-15T19:45:32.930Z,100807.50
2022-12-15T19:48:00.715Z,100833.91
2022-12-15T19:50:37.499Z,100844.78
2022-12-15T19:53:27.362Z,100838.91
2022-12-15T19:55:57.351Z,100836.13
2022-12-15T19:58:33.203Z,100834.63
2022-12-15T20:01:06.238Z,100841.34
2022-12-15T20:03:34.671Z,100838.06
2022-12-15T20:06:03.957Z,100845.78
2022-12-15T20:08:38.342Z,100846.81
2022-12-15T20:11:05.572Z,100827.91
2022-12-15T20:13:33.228Z,100834.03
2022-12-15T20:16:00.909Z,100831.09
2022-12-15T20:18:28.258Z,100835.13
2022-12-15T20:20:55.821Z,100823.00
2022-12-15T20:23:26.707Z,100808.75
2022-12-15T20:25:56.017Z,100821.97
2022-12-15T20:28:29.039Z,100804.06
2022-12-15T20:30:58.122Z,100784.72
2022-12-15T20:33:25.612Z,100814.28
2022-12-15T20:35:53.004Z,100813.41
2022-12-15T20:38:32.254Z,100806.81
2022-12-15T20:41:00.935Z,100821.13
2022-12-15T20:43:31.822Z,100820.78
2022-12-15T20:46:06.742Z,100819.97
2022-12-15T20:48:37.530Z,100818.63
2022-12-15T20:51:09.527Z,100827.97
2022-12-15T20:53:39.225Z,100816.69
2022-12-15T20:56:06.555Z,100815.69
2022-12-15T20:58:41.310Z,100814.06
2022-12-15T21:01:19.382Z,100808.81
2022-12-15T21:03:47.647Z,100817.69
2022-12-15T21:06:15.768Z,100788.53
2022-12-15T21:08:43.053Z,100799.34
2022-12-15T21:11:20.628Z,100805.31
2022-12-15T21:13:49.621Z,100815.41
2022-12-15T21:16:22.675Z,100800.41
2022-12-15T21:19:19.363Z,100787.34
2022-12-15T21:21:45.918Z,100784.81
2022-12-15T21:24:19.846Z,100767.94
2022-12-15T21:26:47.297Z,100745.09
2022-12-15T21:29:26.544Z,100781.31
2022-12-15T21:31:54.031Z,100791.03
2022-12-15T21:34:21.478Z,100781.72
2022-12-15T21:36:55.035Z,100778.75
2022-12-15T21:39:30.080Z,100792.00
2022-12-15T21:42:08.540Z,100774.03
2022-12-15T21:44:35.615Z,100743.31
2022-12-15T21:47:22.399Z,100775.13
2022-12-15T21:49:49.632Z,100768.75
2022-12-15T21:52:19.454Z,100771.88
2022-12-15T21:54:46.569Z,100777.91
2022-12-15T21:57:13.759Z,100777.13
2022-12-15T21:59:41.235Z,100783.47
2022-12-15T22:02:26.828Z,100791.38
2022-12-15T22:04:55.089Z,100744.34
2022-12-15T22:07:22.328Z,100793.88
2022-12-15T22:09:49.475Z,100819.53
2022-12-15T22:12:22.870Z,100870.66
2022-12-15T22:14:50.508Z,100853.25
2022-12-15T22:17:21.796Z,100850.72
2022-12-15T22:19:48.931Z,100864.78
2022-12-15T22:22:16.791Z,100860.44
2022-12-15T22:24:44.113Z,100849.81
2022-12-15T22:27:22.404Z,100861.25
2022-12-15T22:29:50.650Z,100839.78
2022-12-15T22:32:18.733Z,100847.13
2022-12-15T22:34:45.918Z,100848.75
2022-12-15T22:37:13.002Z,100839.06
2022-12-15T22:39:40.382Z,100803.22
2022-12-15T22:42:17.062Z,100835.56
2022-12-15T22:44:45.394Z,100814.63
2022-12-15T22:47:12.963Z,100803.13
2022-12-15T22:49:42.159Z,100803.69
2022-12-15T22:52:17.595Z,100807.69
2022-12-15T22:54:45.937Z,100793.81
2022-12-15T22:57:23.280Z,100797.72
2022-12-15T23:00:07.880Z,100790.00
2022-12-15T23:02:39.292Z,100773.53
2022-12-15T23:05:08.247Z,100796.81
2022-12-15T23:07:35.784Z,100793.78
2022-12-15T23:10:22.960Z,100790.28
2022-12-15T23:12:54.480Z,100788.63
2022-12-15T23:15:42.154Z,100778.72
2022-12-15T23:18:09.553Z,100786.91
2022-12-15T23:20:36.658Z,100761.56
2022-12-15T23:23:04.795Z,100788.53
2022-12-15T23:25:31.985Z,100788.69
2022-12-15T23:27:59.419Z,100787.03
2022-12-15T23:30:26.695Z,100774.38
2022-12-15T23:32:54.985Z,100802.41
2022-12-15T23:35:22.927Z,100807.31
2022-12-15T23:37:50.059Z,100786.28
2022-12-15T23:40:22.460Z,100784.59
2022-12-15T23:42:50.567Z,100788.78
2022-12-15T23:45:18.686Z,100804.38
2022-12-15T23:47:45.865Z,100804.25
2022-12-15T23:50:13.433Z,100798.28
2022-12-15T23:52:41.017Z,100775.75
2022-12-15T23:55:10.316Z,100791.84
2022-12-15T23:57:39.529Z,100793.38
